createdAt,value
2023-03-19T00:00:30.619Z,15.60
2023-03-19T00:02:57.396Z,15.13
2023-03-19T00:05:24.142Z,17.10
2023-03-19T00:07:51.161Z,17.10
2023-03-19T00:10:17.729Z,15.63
2023-03-19T00:12:44.427Z,14.70
2023-03-19T00:15:14.303Z,16.10
2023-03-19T00:17:42.954Z,16.58
2023-03-19T00:22:37.748Z,16.73
2023-03-19T00:25:04.696Z,15.57
2023-03-19T00:27:31.263Z,15.50
2023-03-19T00:29:57.841Z,15.25
2023-03-19T00:32:24.411Z,16.48
2023-03-19T00:34:51.090Z,14.95
2023-03-19T00:37:18.269Z,14.48
2023-03-19T00:39:44.857Z,13.52
2023-03-19T00:42:11.990Z,14.52
2023-03-19T00:44:38.592Z,14.73
2023-03-19T00:47:06.913Z,14.75
2023-03-19T00:49:33.553Z,14.35
2023-03-19T00:52:00.159Z,15.07
2023-03-19T00:54:27.546Z,14.80
2023-03-19T00:56:54.160Z,14.27
2023-03-19T00:59:20.923Z,15.27
2023-03-19T01:01:47.588Z,14.82
2023-03-19T01:04:14.966Z,16.90
2023-03-19T01:06:41.924Z,15.45
2023-03-19T01:09:08.687Z,16.17
2023-03-19T01:11:35.305Z,14.80
2023-03-19T01:14:02.843Z,16.00
2023-03-19T01:16:29.472Z,15.60
2023-03-19T01:18:56.100Z,15.35
2023-03-19T01:21:22.704Z,15.98
2023-03-19T01:23:49.368Z,15.05
2023-03-19T01:26:16.696Z,13.45
2023-03-19T01:28:43.482Z,15.07
2023-03-19T01:31:10.206Z,14.50
2023-03-19T01:33:37.595Z,13.88
2023-03-19T01:36:05.518Z,13.40
2023-03-19T01:38:32.545Z,13.18
2023-03-19T01:40:59.158Z,13.82
2023-03-19T01:43:28.134Z,13.68
2023-03-19T01:46:06.423Z,13.45
2023-03-19T01:48:43.329Z,12.70
2023-03-19T01:51:12.089Z,12.10
2023-03-19T01:53:40.441Z,13.43
2023-03-19T01:56:17.404Z,12.75
2023-03-19T01:58:44.775Z,13.70
2023-03-19T02:01:11.501Z,12.10
2023-03-19T02:03:39.152Z,11.93
2023-03-19T02:06:06.389Z,12.70
2023-03-19T02:08:34.085Z,11.77
2023-03-19T02:11:01.416Z,12.40
2023-03-19T02:13:28.464Z,13.07
2023-03-19T02:15:55.341Z,13.52
2023-03-19T02:18:22.353Z,14.60
2023-03-19T02:21:09.435Z,13.40
2023-03-19T02:23:51.139Z,12.20
2023-03-19T02:26:19.535Z,15.30
2023-03-19T02:28:47.958Z,14.68
2023-03-19T02:31:15.379Z,15.00
2023-03-19T02:33:42.333Z,13.70
2023-03-19T02:36:17.730Z,12.57
2023-03-19T02:38:45.151Z,11.43
2023-03-19T02:41:11.851Z,12.50
2023-03-19T02:43:40.571Z,12.65
2023-03-19T02:46:11.911Z,13.10
2023-03-19T02:48:38.898Z,12.13
2023-03-19T02:51:06.227Z,12.15
2023-03-19T02:53:34.958Z,12.50
2023-03-19T02:56:01.680Z,12.48
2023-03-19T02:58:28.463Z,12.82
2023-03-19T03:00:55.051Z,11.35
2023-03-19T03:03:21.803Z,11.77
2023-03-19T03:05:48.506Z,12.25
2023-03-19T03:08:15.817Z,11.00
2023-03-19T03:10:42.447Z,11.43
2023-03-19T03:13:09.379Z,11.80
2023-03-19T03:15:36.062Z,11.60
2023-03-19T03:18:02.622Z,11.25
2023-03-19T03:20:29.294Z,11.77
2023-03-19T03:22:55.876Z,10.68
2023-03-19T03:25:39.393Z,11.85
2023-03-19T03:28:06.084Z,10.55
2023-03-19T03:30:33.016Z,11.10
2023-03-19T03:32:59.779Z,10.50
2023-03-19T03:35:27.351Z,9.80
2023-03-19T03:37:53.991Z,12.30
2023-03-19T03:40:21.377Z,11.57
2023-03-19T03:42:47.979Z,10.38
2023-03-19T03:45:14.580Z,10.10
2023-03-19T03:47:42.223Z,12.90
2023-03-19T03:50:11.128Z,11.50
2023-03-19T03:52:38.887Z,10.55
2023-03-19T03:55:06.319Z,10.43
2023-03-19T03:57:32.904Z,11.27
2023-03-19T03:59:59.489Z,10.63
2023-03-19T04:02:27.629Z,10.90
2023-03-19T04:04:54.302Z,10.45
2023-03-19T04:07:20.880Z,12.15
2023-03-19T04:09:47.562Z,11.35
2023-03-19T04:12:14.295Z,10.45
2023-03-19T04:14:40.848Z,11.52
2023-03-19T04:17:07.680Z,10.45
2023-03-19T04:19:34.252Z,10.90
2023-03-19T04:22:03.484Z,11.63
2023-03-19T04:24:30.765Z,10.85
2023-03-19T04:26:57.314Z,10.15
2023-03-19T04:29:23.867Z,10.60
2023-03-19T04:31:51.190Z,9.68
2023-03-19T04:34:17.909Z,9.93
2023-03-19T04:36:44.536Z,10.13
2023-03-19T04:39:11.126Z,8.65
2023-03-19T04:41:37.713Z,8.85
2023-03-19T04:44:04.380Z,8.63
2023-03-19T04:46:31.220Z,8.43
2023-03-19T04:48:57.811Z,9.32
2023-03-19T04:51:24.369Z,9.15
2023-03-19T04:53:50.971Z,9.00
2023-03-19T04:56:18.072Z,8.90
2023-03-19T04:58:44.965Z,8.48
2023-03-19T05:01:11.865Z,9.02
2023-03-19T05:03:38.550Z,8.38
2023-03-19T05:06:05.418Z,8.70
2023-03-19T05:08:31.978Z,8.95
2023-03-19T05:10:58.560Z,9.13
2023-03-19T05:13:25.166Z,8.63
2023-03-19T05:15:54.235Z,10.15
2023-03-19T05:18:21.541Z,8.88
2023-03-19T05:20:48.516Z,9.73
2023-03-19T05:23:15.081Z,8.23
2023-03-19T05:25:41.900Z,8.20
2023-03-19T05:28:08.517Z,8.10
2023-03-19T05:30:35.881Z,8.32
2023-03-19T05:33:03.526Z,8.40
2023-03-19T05:35:30.715Z,8.60
2023-03-19T05:37:57.711Z,7.68
2023-03-19T05:40:24.969Z,7.90
2023-03-19T05:42:51.586Z,8.40
2023-03-19T05:45:18.670Z,8.50
2023-03-19T05:47:48.522Z,8.10
2023-03-19T05:50:15.405Z,7.72
2023-03-19T05:52:42.180Z,8.57
2023-03-19T05:55:09.721Z,7.85
2023-03-19T05:57:36.501Z,7.83
2023-03-19T06:00:06.602Z,8.50
2023-03-19T06:02:34.514Z,8.25
2023-03-19T06:05:01.300Z,8.05
2023-03-19T06:07:27.893Z,8.63
2023-03-19T06:09:54.447Z,8.32
2023-03-19T06:12:21.974Z,7.75
2023-03-19T06:14:48.583Z,8.40
2023-03-19T06:17:15.466Z,7.88
2023-03-19T06:19:42.031Z,7.60
2023-03-19T06:22:08.990Z,9.30
2023-03-19T06:24:35.783Z,8.80
2023-03-19T06:27:02.800Z,7.22
2023-03-19T06:29:29.416Z,7.85
2023-03-19T06:31:58.090Z,8.45
2023-03-19T06:34:25.549Z,8.77
2023-03-19T06:36:53.843Z,9.32
2023-03-19T06:39:21.159Z,9.27
2023-03-19T06:41:47.794Z,9.80
2023-03-19T06:44:14.372Z,9.80
2023-03-19T06:46:40.943Z,10.13
2023-03-19T06:49:07.955Z,9.65
2023-03-19T06:51:34.540Z,10.52
2023-03-19T06:54:01.100Z,9.93
2023-03-19T06:56:27.901Z,10.43
2023-03-19T06:58:54.465Z,10.52
2023-03-19T07:01:22.086Z,10.95
2023-03-19T07:03:48.738Z,10.97
2023-03-19T07:06:15.442Z,9.88
2023-03-19T07:08:46.237Z,9.32
2023-03-19T07:11:13.497Z,9.65
2023-03-19T07:13:40.179Z,9.05
2023-03-19T07:16:07.298Z,8.57
2023-03-19T07:18:35.219Z,8.98
2023-03-19T07:21:01.866Z,9.43
2023-03-19T07:23:28.420Z,8.45
2023-03-19T07:25:55.044Z,8.02
2023-03-19T07:28:21.990Z,8.48
2023-03-19T07:30:48.576Z,7.32
2023-03-19T07:33:15.123Z,7.85
2023-03-19T07:35:41.739Z,8.30
2023-03-19T07:38:08.312Z,7.95
2023-03-19T07:40:35.134Z,7.53
2023-03-19T07:43:01.893Z,8.00
2023-03-19T07:45:28.603Z,7.97
2023-03-19T07:47:55.409Z,7.63
2023-03-19T07:50:22.139Z,7.40
2023-03-19T07:52:51.338Z,7.60
2023-03-19T07:55:18.150Z,7.03
2023-03-19T07:57:44.747Z,7.93
2023-03-19T08:00:12.927Z,7.35
2023-03-19T08:02:39.625Z,8.32
2023-03-19T08:05:06.778Z,8.02
2023-03-19T08:07:33.423Z,7.20
2023-03-19T08:10:00.005Z,7.90
2023-03-19T08:12:26.614Z,7.47
2023-03-19T08:14:53.227Z,7.97
2023-03-19T08:17:20.107Z,7.32
2023-03-19T08:19:46.937Z,7.40
2023-03-19T08:22:13.678Z,8.30
2023-03-19T08:24:40.463Z,8.48
2023-03-19T08:27:07.932Z,7.53
2023-03-19T08:29:35.137Z,7.30
2023-03-19T08:32:01.855Z,7.18
2023-03-19T08:34:28.530Z,7.20
2023-03-19T08:36:55.442Z,5.55
2023-03-19T08:39:22.066Z,6.20
2023-03-19T08:41:48.730Z,6.50
2023-03-19T08:44:15.509Z,5.30
2023-03-19T08:46:42.785Z,5.22
2023-03-19T08:49:09.422Z,4.70
2023-03-19T08:51:36.384Z,4.70
2023-03-19T08:54:03.341Z,5.20
2023-03-19T08:56:29.982Z,5.32
2023-03-19T08:58:57.257Z,5.72
2023-03-19T09:01:24.452Z,6.20
2023-03-19T09:03:51.149Z,6.22
2023-03-19T09:06:17.762Z,6.50
2023-03-19T09:08:44.785Z,6.43
2023-03-19T09:11:11.661Z,5.95
2023-03-19T09:13:38.301Z,6.60
2023-03-19T09:16:05.356Z,6.60
2023-03-19T09:18:32.604Z,8.15
2023-03-19T09:20:59.709Z,7.35
2023-03-19T09:23:26.544Z,6.80
2023-03-19T09:25:53.354Z,7.65
2023-03-19T09:28:20.764Z,8.45
2023-03-19T09:30:47.980Z,7.47
2023-03-19T09:33:16.028Z,8.98
2023-03-19T09:35:42.827Z,8.90
2023-03-19T09:38:09.588Z,8.52
2023-03-19T09:40:42.440Z,9.13
2023-03-19T09:43:18.124Z,10.70
2023-03-19T09:45:46.906Z,10.57
2023-03-19T09:48:20.694Z,10.93
2023-03-19T09:50:49.006Z,9.82
2023-03-19T09:53:24.613Z,9.93
2023-03-19T09:55:54.465Z,10.45
2023-03-19T09:58:32.060Z,10.70
2023-03-19T10:01:00.194Z,8.63
2023-03-19T10:03:32.951Z,9.13
2023-03-19T10:06:25.063Z,8.45
2023-03-19T10:09:17.726Z,8.60
2023-03-19T10:11:50.854Z,9.02
2023-03-19T10:14:35.556Z,8.05
2023-03-19T10:17:04.555Z,8.80
2023-03-19T10:19:41.790Z,8.38
2023-03-19T10:22:15.909Z,7.68
2023-03-19T10:24:45.072Z,7.45
2023-03-19T10:27:17.563Z,7.85
2023-03-19T10:29:44.678Z,7.75
2023-03-19T10:32:30.061Z,8.35
2023-03-19T10:34:57.945Z,10.38
2023-03-19T10:37:27.896Z,10.25
2023-03-19T10:39:59.919Z,10.07
2023-03-19T10:43:03.949Z,10.10
2023-03-19T10:45:33.723Z,12.45
2023-03-19T10:48:02.684Z,11.02
2023-03-19T10:50:31.996Z,10.20
2023-03-19T10:53:18.619Z,9.50
2023-03-19T10:55:49.034Z,9.20
2023-03-19T10:58:17.937Z,8.80
2023-03-19T11:00:49.480Z,8.60
2023-03-19T11:03:38.102Z,6.15
2023-03-19T11:06:20.361Z,6.45
2023-03-19T11:08:58.423Z,8.23
2023-03-19T11:11:28.098Z,9.02
2023-03-19T11:13:54.697Z,6.38
2023-03-19T11:16:21.463Z,6.93
2023-03-19T11:18:49.801Z,6.15
2023-03-19T11:21:22.409Z,7.05
2023-03-19T11:23:53.463Z,8.60
2023-03-19T11:26:21.633Z,9.05
2023-03-19T11:28:52.069Z,9.75
2023-03-19T11:31:30.094Z,9.80
2023-03-19T11:34:48.852Z,9.52
2023-03-19T11:37:43.771Z,9.13
2023-03-19T11:40:18.149Z,8.63
2023-03-19T11:42:50.821Z,9.80
2023-03-19T11:45:49.738Z,8.57
2023-03-19T11:48:32.540Z,9.57
2023-03-19T11:51:11.254Z,9.55
2023-03-19T11:53:57.052Z,9.13
2023-03-19T11:56:35.057Z,8.05
2023-03-19T11:59:29.631Z,8.25
2023-03-19T12:02:09.297Z,8.80
2023-03-19T12:04:43.031Z,10.10
2023-03-19T12:07:12.510Z,8.32
2023-03-19T12:10:14.886Z,9.73
2023-03-19T12:12:50.108Z,11.52
2023-03-19T12:15:41.180Z,12.38
2023-03-19T12:18:22.122Z,12.95
2023-03-19T12:21:23.918Z,12.95
2023-03-19T12:23:59.613Z,14.13
2023-03-19T12:26:35.266Z,14.77
2023-03-19T12:29:27.085Z,14.85
2023-03-19T12:32:05.255Z,17.38
2023-03-19T12:34:38.264Z,17.25
2023-03-19T12:37:11.093Z,15.55
2023-03-19T12:39:41.176Z,15.45
2023-03-19T12:42:11.437Z,17.85
2023-03-19T12:44:41.715Z,16.05
2023-03-19T12:47:22.692Z,16.30
2023-03-19T12:50:06.198Z,15.38
2023-03-19T12:52:38.524Z,13.48
2023-03-19T12:55:14.455Z,14.70
2023-03-19T12:57:49.598Z,12.43
2023-03-19T13:00:45.806Z,13.35
2023-03-19T13:03:18.935Z,13.52
2023-03-19T13:05:53.331Z,13.07
2023-03-19T13:08:37.597Z,14.75
2023-03-19T13:11:10.977Z,14.00
2023-03-19T13:13:56.199Z,13.15
2023-03-19T13:16:44.309Z,12.10
2023-03-19T13:19:35.583Z,10.55
2023-03-19T13:22:05.856Z,10.63
2023-03-19T13:24:38.464Z,10.60
2023-03-19T13:27:07.480Z,10.35
2023-03-19T13:29:39.082Z,10.10
2023-03-19T13:32:24.290Z,9.65
2023-03-19T13:34:50.979Z,9.85
2023-03-19T13:37:19.490Z,10.45
2023-03-19T13:42:37.397Z,9.45
2023-03-19T13:45:37.383Z,10.32
2023-03-19T13:48:27.668Z,11.18
2023-03-19T13:51:03.752Z,11.07
2023-03-19T13:53:40.870Z,11.23
2023-03-19T13:56:28.712Z,13.05
2023-03-19T13:59:24.476Z,12.30
2023-03-19T14:01:51.138Z,12.38
2023-03-19T14:04:23.955Z,13.15
2023-03-19T14:07:13.411Z,12.20
2023-03-19T14:09:45.315Z,11.48
2023-03-19T14:12:17.981Z,11.38
2023-03-19T14:14:51.794Z,11.68
2023-03-19T14:17:30.142Z,10.38
2023-03-19T14:20:08.486Z,11.18
2023-03-19T14:22:38.605Z,9.25
2023-03-19T14:25:19.636Z,7.65
2023-03-19T14:27:51.324Z,7.07
2023-03-19T14:30:32.659Z,6.95
2023-03-19T14:33:04.019Z,6.32
2023-03-19T14:35:36.691Z,10.25
2023-03-19T14:38:12.102Z,10.15
2023-03-19T14:40:46.644Z,10.55
2023-03-19T14:43:36.218Z,9.77
2023-03-19T14:46:04.555Z,10.25
2023-03-19T14:51:22.781Z,10.82
2023-03-19T14:54:07.230Z,8.90
2023-03-19T14:56:35.855Z,9.18
2023-03-19T14:59:07.655Z,10.30
2023-03-19T15:01:39.892Z,10.40
2023-03-19T15:04:09.695Z,10.27
2023-03-19T15:06:39.245Z,10.35
2023-03-19T15:09:19.362Z,11.00
2023-03-19T15:11:56.430Z,10.90
2023-03-19T15:14:54.146Z,12.00
2023-03-19T15:17:24.568Z,10.80
2023-03-19T15:19:51.691Z,11.52
2023-03-19T15:22:21.055Z,10.52
2023-03-19T15:24:48.542Z,10.52
2023-03-19T15:27:26.694Z,9.23
2023-03-19T15:29:53.891Z,7.55
2023-03-19T15:32:56.817Z,7.28
2023-03-19T15:35:31.301Z,5.85
2023-03-19T15:38:00.236Z,6.47
2023-03-19T15:40:30.273Z,7.07
2023-03-19T15:43:00.652Z,7.35
2023-03-19T15:45:27.710Z,6.97
2023-03-19T15:48:03.505Z,7.38
2023-03-19T15:50:33.176Z,6.47
2023-03-19T15:53:04.200Z,6.20
2023-03-19T15:55:34.638Z,7.05
2023-03-19T15:58:07.106Z,7.30
2023-03-19T16:00:39.802Z,7.35
2023-03-19T16:03:07.717Z,8.50
2023-03-19T16:05:35.206Z,8.20
2023-03-19T16:08:22.792Z,9.35
2023-03-19T16:10:49.655Z,8.93
2023-03-19T16:13:25.687Z,8.70
2023-03-19T16:16:06.868Z,9.98
2023-03-19T16:19:02.622Z,8.82
2023-03-19T16:21:34.050Z,7.25
2023-03-19T16:24:14.569Z,7.25
2023-03-19T16:26:42.894Z,7.10
2023-03-19T16:29:24.650Z,7.13
2023-03-19T16:31:59.711Z,7.20
2023-03-19T16:34:42.418Z,6.90
2023-03-19T16:37:33.812Z,6.97
2023-03-19T16:40:08.725Z,6.55
2023-03-19T16:42:35.340Z,6.10
2023-03-19T16:45:17.251Z,6.40
2023-03-19T16:47:48.776Z,6.35
2023-03-19T16:50:16.392Z,6.38
2023-03-19T16:52:44.617Z,5.43
2023-03-19T16:55:23.569Z,4.85
2023-03-19T16:57:58.646Z,5.30
2023-03-19T17:00:25.987Z,5.88
2023-03-19T17:02:55.767Z,6.63
2023-03-19T17:05:22.936Z,5.93
2023-03-19T17:07:50.509Z,5.95
2023-03-19T17:10:19.253Z,5.03
2023-03-19T17:12:48.046Z,4.72
2023-03-19T17:15:37.425Z,4.75
2023-03-19T17:18:14.443Z,4.82
2023-03-19T17:20:51.049Z,4.65
2023-03-19T17:23:17.842Z,4.30
2023-03-19T17:25:45.609Z,4.22
2023-03-19T17:28:12.326Z,4.60
2023-03-19T17:30:39.448Z,4.72
2023-03-19T17:33:06.163Z,4.78
2023-03-19T17:35:34.300Z,4.30
2023-03-19T17:38:02.361Z,4.80
2023-03-19T17:40:28.979Z,4.65
2023-03-19T17:42:56.328Z,4.30
2023-03-19T17:45:28.769Z,4.55
2023-03-19T17:47:57.063Z,4.43
2023-03-19T17:50:26.802Z,4.32
2023-03-19T17:52:53.533Z,4.82
2023-03-19T17:55:25.633Z,4.40
2023-03-19T17:57:52.764Z,4.28
2023-03-19T18:00:21.715Z,4.93
2023-03-19T18:02:50.521Z,4.38
2023-03-19T18:05:22.085Z,4.60
2023-03-19T18:07:51.618Z,4.90
2023-03-19T18:10:30.383Z,5.45
2023-03-19T18:12:59.974Z,4.90
2023-03-19T18:15:27.521Z,6.47
2023-03-19T18:17:56.449Z,6.28
2023-03-19T18:20:25.739Z,6.43
2023-03-19T18:22:52.558Z,6.85
2023-03-19T18:25:21.566Z,6.55
2023-03-19T18:27:48.695Z,6.55
2023-03-19T18:30:18.292Z,5.88
2023-03-19T18:32:47.571Z,6.18
2023-03-19T18:35:41.311Z,6.63
2023-03-19T18:38:19.726Z,6.97
2023-03-19T18:43:15.609Z,8.52
2023-03-19T18:45:44.367Z,7.90
2023-03-19T18:48:31.503Z,7.50
2023-03-19T18:50:58.204Z,7.40
2023-03-19T18:53:25.327Z,7.32
2023-03-19T18:55:52.234Z,7.75
2023-03-19T18:58:27.577Z,6.78
2023-03-19T19:00:54.445Z,7.50
2023-03-19T19:03:28.441Z,7.10
2023-03-19T19:05:56.179Z,7.13
2023-03-19T19:08:25.301Z,7.05
2023-03-19T19:10:54.208Z,6.80
2023-03-19T19:13:27.185Z,6.53
2023-03-19T19:15:53.987Z,6.75
2023-03-19T19:18:25.185Z,6.57
2023-03-19T19:20:53.087Z,7.10
2023-03-19T19:23:21.107Z,6.80
2023-03-19T19:25:50.999Z,7.18
2023-03-19T19:28:26.743Z,7.78
2023-03-19T19:30:55.059Z,9.10
2023-03-19T19:33:24.268Z,9.65
2023-03-19T19:35:52.112Z,10.35
2023-03-19T19:38:18.789Z,10.70
2023-03-19T19:40:48.230Z,10.70
2023-03-19T19:43:23.276Z,11.30
2023-03-19T19:45:51.654Z,9.90
2023-03-19T19:48:29.195Z,8.90
2023-03-19T19:50:56.421Z,8.47
2023-03-19T19:53:25.340Z,8.32
2023-03-19T19:55:52.963Z,8.52
2023-03-19T19:58:31.338Z,8.97
2023-03-19T20:03:32.384Z,9.35
2023-03-19T20:06:00.755Z,8.82
2023-03-19T20:08:27.555Z,8.43
2023-03-19T20:10:54.482Z,7.32
2023-03-19T20:13:39.610Z,8.55
2023-03-19T20:16:06.560Z,10.63
2023-03-19T20:18:35.558Z,10.43
2023-03-19T20:21:04.206Z,9.35
2023-03-19T20:23:31.426Z,9.82
2023-03-19T20:25:58.326Z,10.90
2023-03-19T20:28:27.652Z,8.18
2023-03-19T20:30:54.793Z,10.30
2023-03-19T20:33:21.880Z,10.10
2023-03-19T20:35:48.746Z,9.73
2023-03-19T20:38:15.555Z,11.13
2023-03-19T20:40:47.788Z,11.93
2023-03-19T20:43:21.168Z,11.73
2023-03-19T20:45:47.744Z,11.43
2023-03-19T20:48:16.696Z,12.23
2023-03-19T20:50:43.566Z,12.90
2023-03-19T20:53:11.241Z,13.35
2023-03-19T20:55:39.534Z,13.60
2023-03-19T20:58:34.529Z,14.48
2023-03-19T21:01:02.819Z,14.88
2023-03-19T21:03:31.405Z,14.23
2023-03-19T21:08:42.922Z,15.55
2023-03-19T21:11:18.129Z,15.48
2023-03-19T21:13:49.546Z,15.13
2023-03-19T21:16:21.777Z,14.98
2023-03-19T21:18:49.371Z,16.17
2023-03-19T21:21:16.718Z,14.87
2023-03-19T21:23:52.912Z,18.23
2023-03-19T21:26:22.252Z,15.65
2023-03-19T21:28:50.641Z,16.77
2023-03-19T21:31:20.518Z,15.75
2023-03-19T21:33:48.523Z,16.33
2023-03-19T21:36:15.817Z,17.48
2023-03-19T21:38:42.831Z,17.02
2023-03-19T21:41:22.470Z,16.25
2023-03-19T21:44:01.375Z,17.40
2023-03-19T21:46:29.841Z,17.58
2023-03-19T21:51:25.204Z,17.48
2023-03-19T21:53:52.287Z,18.40
2023-03-19T21:56:24.588Z,16.25
2023-03-19T21:58:54.385Z,17.17
2023-03-19T22:01:23.718Z,17.27
2023-03-19T22:03:51.656Z,17.10
2023-03-19T22:06:19.165Z,17.15
2023-03-19T22:08:48.141Z,16.42
2023-03-19T22:11:27.629Z,17.10
2023-03-19T22:13:55.476Z,15.82
2023-03-19T22:16:24.702Z,16.75
2023-03-19T22:18:52.579Z,16.58
2023-03-19T22:21:22.377Z,17.13
2023-03-19T22:23:49.376Z,17.90
2023-03-19T22:26:25.577Z,18.33
2023-03-19T22:28:52.157Z,15.38
2023-03-19T22:31:18.785Z,16.38
2023-03-19T22:33:45.846Z,15.85
2023-03-19T22:36:14.922Z,15.02
2023-03-19T22:38:43.787Z,15.73
2023-03-19T22:41:36.971Z,16.10
2023-03-19T22:44:06.127Z,15.43
2023-03-19T22:46:32.836Z,16.27
2023-03-19T22:48:59.427Z,16.73
2023-03-19T22:51:27.637Z,15.80
2023-03-19T22:53:54.758Z,18.20
2023-03-19T22:56:22.020Z,17.17
2023-03-19T22:58:48.727Z,17.27
2023-03-19T23:01:21.358Z,16.70
2023-03-19T23:03:49.622Z,16.58
2023-03-19T23:06:29.345Z,17.33
2023-03-19T23:08:57.194Z,16.90
2023-03-19T23:11:24.418Z,19.17
2023-03-19T23:13:51.215Z,18.92
2023-03-19T23:16:23.508Z,17.55
2023-03-19T23:18:50.924Z,18.48
2023-03-19T23:21:18.754Z,18.33
2023-03-19T23:23:45.724Z,18.23
2023-03-19T23:26:38.773Z,18.60
2023-03-19T23:29:06.777Z,16.35
2023-03-19T23:31:34.455Z,16.73
2023-03-19T23:34:01.613Z,17.45
2023-03-19T23:36:28.266Z,17.33
2023-03-19T23:38:54.824Z,17.13
2023-03-19T23:41:24.478Z,18.00
2023-03-19T23:43:52.811Z,17.40
2023-03-19T23:46:20.092Z,14.65
2023-03-19T23:48:46.787Z,15.35
2023-03-19T23:51:14.332Z,16.05
2023-03-19T23:53:41.399Z,15.70
2023-03-19T23:56:14.613Z,15.20
2023-03-19T23:58:43.264Z,16.98
